createdAt,value
2024-03-13T00:00:20.786Z,101499.58
2024-03-13T00:02:57.887Z,101498.08
2024-03-13T00:05:12.963Z,101497.05
2024-03-13T00:07:25.839Z,101502.77
2024-03-13T00:09:51.943Z,101505.91
2024-03-13T00:12:25.280Z,101504.02
2024-03-13T00:14:42.076Z,101507.04
2024-03-13T00:16:59.490Z,101511.45
2024-03-13T00:19:13.072Z,101520.05
2024-03-13T00:21:26.747Z,101526.10
2024-03-13T00:23:42.649Z,101527.67
2024-03-13T00:25:55.834Z,101532.05
2024-03-13T00:28:09.955Z,101530.79
2024-03-13T00:30:23.218Z,101536.14
2024-03-13T00:32:36.708Z,101538.23
2024-03-13T00:35:03.752Z,101542.56
2024-03-13T00:37:16.724Z,101549.65
2024-03-13T00:39:29.614Z,101561.30
2024-03-13T00:41:43.444Z,101563.57
2024-03-13T00:43:56.476Z,101564.98
2024-03-13T00:46:10.506Z,101574.01
2024-03-13T00:48:23.522Z,101580.45
2024-03-13T00:50:37.285Z,101581.05
2024-03-13T00:52:51.301Z,101584.48
2024-03-13T00:55:05.054Z,101589.11
2024-03-13T00:57:19.549Z,101589.64
2024-03-13T00:59:36.600Z,101605.91
2024-03-13T01:01:59.708Z,101608.59
2024-03-13T01:04:13.382Z,101611.41
2024-03-13T01:06:27.821Z,101618.58
2024-03-13T01:08:40.791Z,101622.61
2024-03-13T01:10:53.921Z,101627.27
2024-03-13T01:13:07.587Z,101627.51
2024-03-13T01:15:20.489Z,101636.81
2024-03-13T01:17:44.572Z,101644.63
2024-03-13T01:19:57.868Z,101641.05
2024-03-13T01:22:15.250Z,101642.08
2024-03-13T01:24:29.007Z,101652.55
2024-03-13T01:26:45.205Z,101651.10
2024-03-13T01:29:01.466Z,101658.25
2024-03-13T01:31:14.498Z,101657.48
2024-03-13T01:33:31.052Z,101663.02
2024-03-13T01:35:47.438Z,101672.20
2024-03-13T01:38:00.911Z,101674.56
2024-03-13T01:40:21.456Z,101672.04
2024-03-13T01:42:51.467Z,101672.27
2024-03-13T01:45:45.644Z,101674.66
2024-03-13T01:48:19.966Z,101669.27
2024-03-13T01:50:49.794Z,101672.98
2024-03-13T01:53:32.792Z,101674.20
2024-03-13T01:55:51.279Z,101677.14
2024-03-13T01:58:21.834Z,101688.02
2024-03-13T02:01:03.791Z,101694.17
2024-03-13T02:03:20.135Z,101690.96
2024-03-13T02:05:36.116Z,101699.80
2024-03-13T02:07:52.763Z,101698.58
2024-03-13T02:10:09.296Z,101700.09
2024-03-13T02:12:25.740Z,101702.14
2024-03-13T02:14:45.343Z,101706.91
2024-03-13T02:17:00.328Z,101708.11
2024-03-13T02:19:17.248Z,101710.98
2024-03-13T02:21:30.744Z,101715.59
2024-03-13T02:23:41.323Z,101719.97
2024-03-13T02:25:59.753Z,101725.19
2024-03-13T02:28:09.734Z,101728.85
2024-03-13T02:30:22.830Z,101734.59
2024-03-13T02:32:35.987Z,101735.83
2024-03-13T02:34:49.236Z,101737.20
2024-03-13T02:36:58.786Z,101743.54
2024-03-13T02:39:07.737Z,101742.33
2024-03-13T02:41:20.138Z,101747.16
2024-03-13T02:43:50.126Z,101752.16
2024-03-13T02:46:08.307Z,101758.27
2024-03-13T02:48:20.607Z,101758.53
2024-03-13T02:50:30.732Z,101758.63
2024-03-13T02:52:39.642Z,101766.21
2024-03-13T02:54:49.758Z,101767.10
2024-03-13T02:56:59.712Z,101776.81
2024-03-13T02:59:22.407Z,101770.83
2024-03-13T03:01:31.500Z,101778.77
2024-03-13T03:03:51.496Z,101783.48
2024-03-13T03:06:09.661Z,101792.58
2024-03-13T03:08:42.590Z,101794.97
2024-03-13T03:11:03.416Z,101795.50
2024-03-13T03:13:21.663Z,101795.88
2024-03-13T03:15:38.408Z,101793.98
2024-03-13T03:17:51.489Z,101803.08
2024-03-13T03:20:06.275Z,101813.88
2024-03-13T03:22:15.932Z,101823.11
2024-03-13T03:24:27.744Z,101829.64
2024-03-13T03:26:36.925Z,101841.17
2024-03-13T03:28:45.744Z,101847.08
2024-03-13T03:30:58.982Z,101852.15
2024-03-13T03:33:08.295Z,101852.60
2024-03-13T03:35:21.469Z,101857.20
2024-03-13T03:37:30.468Z,101854.48
2024-03-13T03:39:40.540Z,101855.58
2024-03-13T03:41:50.146Z,101856.96
2024-03-13T03:44:02.108Z,101855.17
2024-03-13T03:46:22.318Z,101857.36
2024-03-13T03:48:34.677Z,101858.23
2024-03-13T03:50:43.756Z,101858.98
2024-03-13T03:52:56.078Z,101867.46
2024-03-13T03:55:25.017Z,101862.98
2024-03-13T03:57:44.819Z,101867.32
2024-03-13T04:00:14.825Z,101872.98
2024-03-13T04:02:23.873Z,101869.25
2024-03-13T04:04:32.924Z,101878.72
2024-03-13T04:06:43.398Z,101883.92
2024-03-13T04:08:53.966Z,101886.02
2024-03-13T04:11:04.039Z,101885.41
2024-03-13T04:13:18.265Z,101890.88
2024-03-13T04:15:28.716Z,101892.39
2024-03-13T04:17:42.704Z,101895.48
2024-03-13T04:19:51.840Z,101901.70
2024-03-13T04:22:04.592Z,101901.19
2024-03-13T04:24:24.326Z,101899.23
2024-03-13T04:26:36.522Z,101904.89
2024-03-13T04:28:50.271Z,101908.34
2024-03-13T04:30:59.361Z,101910.23
2024-03-13T04:33:08.701Z,101915.59
2024-03-13T04:35:22.868Z,101923.46
2024-03-13T04:37:31.887Z,101924.17
2024-03-13T04:39:41.016Z,101928.80
2024-03-13T04:41:53.732Z,101926.92
2024-03-13T04:44:06.736Z,101929.52
2024-03-13T04:46:19.271Z,101938.63
2024-03-13T04:48:39.353Z,101933.85
2024-03-13T04:50:58.643Z,101933.67
2024-03-13T04:53:10.133Z,101930.58
2024-03-13T04:55:19.104Z,101933.86
2024-03-13T04:57:28.143Z,101936.65
2024-03-13T04:59:57.774Z,101943.48
2024-03-13T05:02:08.335Z,101947.39
2024-03-13T05:04:17.370Z,101952.55
2024-03-13T05:06:35.350Z,101955.83
2024-03-13T05:08:44.786Z,101953.93
2024-03-13T05:10:53.633Z,101954.10
2024-03-13T05:13:05.000Z,101953.14
2024-03-13T05:15:16.887Z,101954.98
2024-03-13T05:17:38.603Z,101955.36
2024-03-13T05:19:47.551Z,101955.83
2024-03-13T05:21:56.594Z,101963.14
2024-03-13T05:24:09.198Z,101967.44
2024-03-13T05:26:21.065Z,101975.14
2024-03-13T05:28:33.632Z,101972.82
2024-03-13T05:30:46.072Z,101983.94
2024-03-13T05:33:15.028Z,101984.83
2024-03-13T05:35:44.050Z,101992.84
2024-03-13T05:37:52.970Z,101995.69
2024-03-13T05:40:23.022Z,102002.84
2024-03-13T05:42:43.974Z,102003.16
2024-03-13T05:44:56.422Z,102006.14
2024-03-13T05:47:05.343Z,102012.98
2024-03-13T05:49:19.345Z,102015.48
2024-03-13T05:51:28.694Z,102020.56
2024-03-13T05:53:37.726Z,102020.66
2024-03-13T05:55:49.925Z,102021.61
2024-03-13T05:57:59.172Z,102026.83
2024-03-13T06:00:11.616Z,102030.89
2024-03-13T06:02:24.565Z,102035.50
2024-03-13T06:04:37.885Z,102034.23
2024-03-13T06:06:48.084Z,102031.99
2024-03-13T06:09:00.653Z,102035.68
2024-03-13T06:11:10.616Z,102036.77
2024-03-13T06:13:19.572Z,102040.70
2024-03-13T06:15:28.523Z,102047.51
2024-03-13T06:17:37.846Z,102049.63
2024-03-13T06:19:47.228Z,102050.11
2024-03-13T06:21:56.252Z,102047.20
2024-03-13T06:24:08.506Z,102056.29
2024-03-13T06:26:19.436Z,102059.36
2024-03-13T06:28:44.312Z,102068.48
2024-03-13T06:30:56.419Z,102073.58
2024-03-13T06:33:06.497Z,102074.86
2024-03-13T06:35:15.498Z,102077.45
2024-03-13T06:37:24.764Z,102081.44
2024-03-13T06:39:43.562Z,102078.47
2024-03-13T06:41:56.389Z,102085.30
2024-03-13T06:44:08.595Z,102088.27
2024-03-13T06:46:18.085Z,102091.26
2024-03-13T06:48:30.619Z,102093.90
2024-03-13T06:50:42.900Z,102095.36
2024-03-13T06:52:51.889Z,102101.54
2024-03-13T06:55:20.844Z,102107.82
2024-03-13T06:57:40.921Z,102110.15
2024-03-13T06:59:49.876Z,102113.45
2024-03-13T07:01:59.144Z,102117.19
2024-03-13T07:04:18.223Z,102125.28
2024-03-13T07:06:27.660Z,102126.41
2024-03-13T07:08:40.188Z,102130.10
2024-03-13T07:10:49.369Z,102135.45
2024-03-13T07:12:58.220Z,102133.77
2024-03-13T07:15:17.500Z,102137.70
2024-03-13T07:17:30.231Z,102134.33
2024-03-13T07:19:40.367Z,102135.46
2024-03-13T07:21:49.325Z,102137.91
2024-03-13T07:23:58.386Z,102133.21
2024-03-13T07:26:09.823Z,102124.52
2024-03-13T07:28:21.899Z,102118.80
2024-03-13T07:30:31.553Z,102118.82
2024-03-13T07:32:44.120Z,102122.11
2024-03-13T07:34:53.878Z,102121.88
2024-03-13T07:37:02.809Z,102119.31
2024-03-13T07:39:16.881Z,102126.33
2024-03-13T07:41:26.172Z,102129.90
2024-03-13T07:43:35.235Z,102128.98
2024-03-13T07:45:57.818Z,102134.30
2024-03-13T07:48:11.124Z,102139.56
2024-03-13T07:50:31.140Z,102136.98
2024-03-13T07:52:50.614Z,102136.94
2024-03-13T07:54:59.371Z,102143.89
2024-03-13T07:57:08.593Z,102141.58
2024-03-13T07:59:20.778Z,102144.30
2024-03-13T08:01:29.888Z,102143.29
2024-03-13T08:03:58.816Z,102142.52
2024-03-13T09:06:54.628Z,102223.64
2024-03-13T09:09:05.662Z,102221.67
2024-03-13T09:11:19.160Z,102223.92
2024-03-13T09:13:28.379Z,102229.09
2024-03-13T09:15:40.812Z,102230.98
2024-03-13T09:17:54.368Z,102236.59
2024-03-13T09:20:16.087Z,102245.13
2024-03-13T09:22:25.148Z,102243.94
2024-03-13T09:24:48.121Z,102244.34
2024-03-13T09:26:58.863Z,102248.25
2024-03-13T09:29:11.099Z,102247.50
2024-03-13T09:31:23.742Z,102247.80
2024-03-13T09:33:35.686Z,102241.30
2024-03-13T09:35:44.814Z,102244.85
2024-03-13T09:37:54.610Z,102247.33
2024-03-13T09:40:07.060Z,102251.05
2024-03-13T09:42:19.987Z,102251.14
2024-03-13T09:44:28.905Z,102245.61
2024-03-13T09:46:38.180Z,102242.45
2024-03-13T09:48:50.632Z,102245.31
2024-03-13T09:51:02.150Z,102249.77
2024-03-13T09:53:13.044Z,102252.86
2024-03-13T09:55:25.157Z,102247.77
2024-03-13T09:57:34.484Z,102248.30
2024-03-13T09:59:46.675Z,102243.90
2024-03-13T10:02:05.752Z,102232.59
2024-03-13T10:04:26.708Z,102228.52
2024-03-13T10:06:35.785Z,102227.80
2024-03-13T10:09:05.653Z,102218.51
2024-03-13T10:11:17.019Z,102213.83
2024-03-13T10:13:29.753Z,102212.29
2024-03-13T10:15:38.677Z,102208.05
2024-03-13T10:17:47.936Z,102209.91
2024-03-13T10:20:10.469Z,102213.25
2024-03-13T10:22:19.348Z,102208.83
2024-03-13T10:24:28.275Z,102206.69
2024-03-13T10:26:41.358Z,102212.10
2024-03-13T10:28:50.373Z,102214.88
2024-03-13T10:31:19.284Z,102218.34
2024-03-13T10:33:30.919Z,102217.04
2024-03-13T10:35:41.520Z,102221.34
2024-03-13T10:37:50.626Z,102217.99
2024-03-13T10:40:02.645Z,102222.52
2024-03-13T10:42:12.108Z,102212.29
2024-03-13T10:44:30.037Z,102213.03
2024-03-13T10:47:10.558Z,102213.87
2024-03-13T10:49:19.681Z,102214.61
2024-03-13T10:51:28.302Z,102219.51
2024-03-13T10:53:37.456Z,102220.98
2024-03-13T10:55:46.834Z,102229.32
2024-03-13T10:57:56.933Z,102231.46
2024-03-13T11:00:05.969Z,102228.80
2024-03-13T11:02:14.745Z,102230.70
2024-03-13T11:04:23.554Z,102232.84
2024-03-13T11:06:32.471Z,102239.55
2024-03-13T11:08:41.865Z,102242.45
2024-03-13T11:11:02.162Z,102251.45
2024-03-13T11:13:19.846Z,102259.19
2024-03-13T11:15:31.780Z,102255.71
2024-03-13T11:17:42.953Z,102251.46
2024-03-13T11:19:52.056Z,102247.39
2024-03-13T11:22:04.497Z,102253.65
2024-03-13T11:24:14.296Z,102253.36
2024-03-13T11:26:23.311Z,102261.30
2024-03-13T11:28:32.263Z,102262.19
2024-03-13T11:30:40.905Z,102262.67
2024-03-13T11:32:51.115Z,102257.45
2024-03-13T11:34:59.766Z,102256.17
2024-03-13T11:37:13.476Z,102253.36
2024-03-13T11:39:23.698Z,102257.05
2024-03-13T11:41:33.730Z,102260.88
2024-03-13T11:43:42.460Z,102255.09
2024-03-13T11:45:51.159Z,102253.00
2024-03-13T11:48:03.433Z,102247.75
2024-03-13T11:50:13.457Z,102255.91
2024-03-13T11:52:22.297Z,102269.14
2024-03-13T11:54:34.791Z,102276.63
2024-03-13T11:56:44.282Z,102280.03
2024-03-13T11:58:53.701Z,102285.70
2024-03-13T12:01:03.303Z,102283.13
2024-03-13T12:03:13.945Z,102284.05
2024-03-13T12:05:36.075Z,102291.36
2024-03-13T12:07:45.232Z,102298.76
2024-03-13T12:09:54.233Z,102306.17
2024-03-13T12:12:06.507Z,102304.77
2024-03-13T12:14:16.147Z,102306.89
2024-03-13T12:16:24.879Z,102309.79
2024-03-13T12:18:33.587Z,102316.16
2024-03-13T12:20:44.168Z,102324.45
2024-03-13T12:22:53.069Z,102327.30
2024-03-13T12:25:01.887Z,102326.70
2024-03-13T12:27:11.924Z,102329.15
2024-03-13T12:29:20.647Z,102331.41
2024-03-13T12:31:29.897Z,102331.58
2024-03-13T12:33:38.849Z,102334.67
2024-03-13T12:35:51.331Z,102336.74
2024-03-13T12:38:00.154Z,102336.42
2024-03-13T12:40:10.755Z,102338.86
2024-03-13T12:42:20.505Z,102340.17
2024-03-13T12:44:32.529Z,102337.94
2024-03-13T12:46:42.627Z,102336.08
2024-03-13T12:48:52.065Z,102343.98
2024-03-13T12:51:00.887Z,102346.70
2024-03-13T12:53:10.206Z,102341.32
2024-03-13T12:55:22.203Z,102343.81
2024-03-13T12:57:32.752Z,102345.94
2024-03-13T12:59:53.886Z,102344.58
2024-03-13T13:02:04.287Z,102354.30
2024-03-13T13:04:13.521Z,102357.67
2024-03-13T13:06:22.384Z,102360.13
2024-03-13T13:08:30.962Z,102357.63
2024-03-13T13:10:40.246Z,102365.52
2024-03-13T13:12:49.842Z,102375.23
2024-03-13T13:14:59.427Z,102383.84
2024-03-13T13:17:09.717Z,102392.14
2024-03-13T13:19:18.245Z,102390.17
2024-03-13T13:21:27.287Z,102388.61
2024-03-13T13:23:35.958Z,102385.23
2024-03-13T13:25:44.845Z,102392.29
2024-03-13T13:27:56.239Z,102398.10
2024-03-13T13:30:05.497Z,102402.08
2024-03-13T13:32:14.745Z,102405.45
2024-03-13T13:34:23.354Z,102408.92
2024-03-13T13:36:32.122Z,102409.63
2024-03-13T13:38:40.807Z,102419.14
2024-03-13T13:40:52.264Z,102424.73
2024-03-13T13:43:01.190Z,102427.56
2024-03-13T13:45:12.304Z,102427.29
2024-03-13T13:47:20.975Z,102426.91
2024-03-13T13:49:29.614Z,102437.86
2024-03-13T13:51:38.287Z,102448.61
2024-03-13T13:53:46.928Z,102455.56
2024-03-13T13:55:55.799Z,102453.34
2024-03-13T13:58:06.094Z,102449.52
2024-03-13T14:00:19.760Z,102449.64
2024-03-13T14:02:31.858Z,102438.88
2024-03-13T14:04:40.847Z,102437.52
2024-03-13T14:06:49.596Z,102435.23
2024-03-13T14:08:58.216Z,102436.96
2024-03-13T14:11:08.422Z,102437.85
2024-03-13T14:13:18.164Z,102437.69
2024-03-13T14:15:27.089Z,102438.77
2024-03-13T14:17:38.141Z,102441.42
2024-03-13T14:19:47.195Z,102449.65
2024-03-13T14:21:57.009Z,102462.46
2024-03-13T14:24:07.008Z,102461.16
2024-03-13T14:26:15.751Z,102459.85
2024-03-13T14:28:25.095Z,102462.45
2024-03-13T14:30:33.707Z,102469.76
2024-03-13T14:32:42.616Z,102472.41
2024-03-13T14:34:59.325Z,102478.72
2024-03-13T14:37:08.665Z,102496.92
2024-03-13T14:39:19.020Z,102501.38
2024-03-13T14:41:27.962Z,102490.72
2024-03-13T14:43:37.318Z,102481.48
2024-03-13T14:45:46.237Z,102483.14
2024-03-13T14:47:55.350Z,102479.48
2024-03-13T14:50:04.309Z,102472.11
2024-03-13T14:52:13.145Z,102484.75
2024-03-13T14:54:21.800Z,102493.17
2024-03-13T14:56:31.063Z,102499.02
2024-03-13T14:58:39.767Z,102496.70
2024-03-13T15:00:50.654Z,102501.32
2024-03-13T15:03:00.826Z,102508.98
2024-03-13T15:05:10.273Z,102513.83
2024-03-13T15:07:19.383Z,102515.67
2024-03-13T15:09:28.020Z,102519.89
2024-03-13T15:11:36.726Z,102525.10
2024-03-13T15:13:49.155Z,102530.15
2024-03-13T15:15:57.730Z,102528.36
2024-03-13T15:18:06.573Z,102529.83
2024-03-13T15:20:15.421Z,102532.65
2024-03-13T15:22:26.624Z,102534.77
2024-03-13T15:24:35.259Z,102538.69
2024-03-13T15:26:44.163Z,102544.66
2024-03-13T15:28:52.812Z,102541.49
2024-03-13T15:31:01.398Z,102543.32
2024-03-13T15:33:10.139Z,102545.42
2024-03-13T15:35:18.941Z,102546.11
2024-03-13T15:37:27.869Z,102548.46
2024-03-13T15:39:36.596Z,102542.15
2024-03-13T15:41:46.042Z,102547.95
2024-03-13T15:43:55.387Z,102549.66
2024-03-13T15:46:04.082Z,102551.61
2024-03-13T15:48:13.049Z,102551.06
2024-03-13T15:50:29.176Z,102546.45
2024-03-13T15:52:41.785Z,102544.10
2024-03-13T15:54:50.848Z,102547.71
2024-03-13T15:56:59.504Z,102547.64
2024-03-13T15:59:08.422Z,102543.75
2024-03-13T16:01:17.802Z,102544.90
2024-03-13T16:03:26.810Z,102548.61
2024-03-13T16:05:35.769Z,102552.71
2024-03-13T16:07:44.541Z,102553.85
2024-03-13T16:09:54.116Z,102551.45
2024-03-13T16:12:05.024Z,102556.60
2024-03-13T16:14:16.385Z,102554.25
2024-03-13T16:16:28.330Z,102556.57
2024-03-13T16:18:37.050Z,102552.70
2024-03-13T16:20:46.854Z,102554.27
2024-03-13T16:22:55.406Z,102556.37
2024-03-13T16:25:03.930Z,102556.27
2024-03-13T16:27:12.611Z,102559.90
2024-03-13T16:29:21.277Z,102561.03
2024-03-13T16:31:29.871Z,102569.94
2024-03-13T16:33:38.805Z,102573.03
2024-03-13T16:35:47.488Z,102567.90
2024-03-13T16:37:56.186Z,102574.04
2024-03-13T16:40:06.481Z,102577.83
2024-03-13T16:42:15.234Z,102578.55
2024-03-13T16:44:24.685Z,102580.30
2024-03-13T16:46:34.256Z,102582.77
2024-03-13T16:48:43.400Z,102580.60
2024-03-13T16:50:52.278Z,102579.34
2024-03-13T16:53:00.974Z,102576.52
2024-03-13T16:55:10.192Z,102579.41
2024-03-13T16:57:18.850Z,102580.69
2024-03-13T16:59:28.013Z,102586.78
2024-03-13T17:01:36.694Z,102586.48
2024-03-13T17:03:46.917Z,102591.11
2024-03-13T17:05:56.363Z,102595.40
2024-03-13T17:08:05.734Z,102597.41
2024-03-13T17:10:14.501Z,102604.73
2024-03-13T17:12:24.009Z,102604.88
2024-03-13T17:14:33.796Z,102608.04
2024-03-13T17:16:43.430Z,102604.83
2024-03-13T17:18:52.289Z,102606.27
2024-03-13T17:21:01.647Z,102611.87
2024-03-13T17:23:12.958Z,102619.14
2024-03-13T17:25:24.094Z,102624.57
2024-03-13T17:27:32.758Z,102624.73
2024-03-13T17:29:41.746Z,102630.31
2024-03-13T17:31:50.336Z,102626.48
2024-03-13T17:33:59.136Z,102628.83
2024-03-13T17:36:09.411Z,102626.71
2024-03-13T17:38:18.063Z,102627.04
2024-03-13T17:40:26.722Z,102631.31
2024-03-13T17:42:35.311Z,102634.07
2024-03-13T17:44:45.476Z,102632.92
2024-03-13T17:46:54.091Z,102635.45
2024-03-13T17:49:02.890Z,102639.17
2024-03-13T17:51:13.623Z,102634.64
2024-03-13T17:53:22.367Z,102632.48
2024-03-13T17:55:31.583Z,102628.80
2024-03-13T17:57:40.436Z,102623.55
2024-03-13T17:59:49.776Z,102623.83
2024-03-13T18:01:58.465Z,102629.69
2024-03-13T18:04:10.232Z,102628.38
2024-03-13T18:06:22.285Z,102626.92
2024-03-13T18:08:30.583Z,102623.58
2024-03-13T18:10:39.303Z,102624.61
2024-03-13T18:12:49.124Z,102627.52
2024-03-13T18:14:58.219Z,102631.05
2024-03-13T18:17:07.002Z,102633.75
2024-03-13T18:19:15.932Z,102632.83
2024-03-13T18:21:26.692Z,102632.10
2024-03-13T18:23:35.258Z,102633.69
2024-03-13T18:25:44.085Z,102633.52
2024-03-13T18:27:52.730Z,102632.20
2024-03-13T18:30:06.621Z,102626.67
2024-03-13T18:32:15.286Z,102621.33
2024-03-13T18:34:23.967Z,102625.44
2024-03-13T18:36:32.646Z,102625.23
2024-03-13T18:38:41.465Z,102629.25
2024-03-13T18:40:50.535Z,102632.79
2024-03-13T18:42:59.178Z,102629.88
2024-03-13T18:45:08.524Z,102629.89
2024-03-13T18:47:17.165Z,102630.01
2024-03-13T18:49:25.713Z,102633.44
2024-03-13T18:51:34.451Z,102631.55
2024-03-13T18:53:44.128Z,102632.45
2024-03-13T18:55:53.087Z,102625.98
2024-03-13T18:58:01.808Z,102631.06
2024-03-13T19:00:15.288Z,102632.09
2024-03-13T19:02:25.794Z,102630.53
2024-03-13T19:04:35.605Z,102633.91
2024-03-13T19:06:45.258Z,102630.67
2024-03-13T19:08:54.115Z,102629.27
2024-03-13T19:11:03.257Z,102623.73
2024-03-13T19:13:12.765Z,102621.04
2024-03-13T19:15:21.943Z,102619.55
2024-03-13T19:17:30.642Z,102624.71
2024-03-13T19:19:39.523Z,102621.41
2024-03-13T19:21:48.527Z,102620.37
2024-03-13T19:23:58.565Z,102620.49
2024-03-13T19:26:08.164Z,102623.74
2024-03-13T19:28:16.898Z,102629.33
2024-03-13T19:30:25.704Z,102628.33
2024-03-13T19:32:34.310Z,102629.31
2024-03-13T19:34:44.707Z,102630.95
2024-03-13T19:36:53.356Z,102632.73
2024-03-13T19:39:02.322Z,102638.38
2024-03-13T19:41:11.118Z,102638.03
2024-03-13T19:43:19.959Z,102640.76
2024-03-13T19:45:29.269Z,102642.90
2024-03-13T19:47:38.822Z,102642.34
2024-03-13T19:49:47.604Z,102645.88
2024-03-13T19:51:56.846Z,102642.25
2024-03-13T19:54:05.604Z,102643.64
2024-03-13T19:56:14.934Z,102643.06
2024-03-13T19:58:23.550Z,102646.35
2024-03-13T20:00:32.989Z,102645.06
2024-03-13T20:02:41.792Z,102652.35
2024-03-13T20:04:50.467Z,102656.31
2024-03-13T20:06:59.218Z,102655.27
2024-03-13T20:09:09.932Z,102650.52
2024-03-13T20:11:19.561Z,102637.77
2024-03-13T20:13:28.223Z,102626.83
2024-03-13T20:15:37.308Z,102625.35
2024-03-13T20:17:46.195Z,102621.33
2024-03-13T20:19:55.823Z,102619.95
2024-03-13T20:22:04.433Z,102620.96
2024-03-13T20:24:13.610Z,102623.94
2024-03-13T20:26:22.198Z,102624.80
2024-03-13T20:28:30.813Z,102621.47
2024-03-13T20:30:39.506Z,102624.62
2024-03-13T20:32:48.284Z,102629.02
2024-03-13T20:34:57.154Z,102637.80
2024-03-13T20:37:05.891Z,102628.80
2024-03-13T20:39:15.710Z,102618.23
2024-03-13T20:41:25.054Z,102615.83
2024-03-13T20:43:33.642Z,102614.99
2024-03-13T20:45:42.620Z,102618.28
2024-03-13T20:47:51.509Z,102628.86
2024-03-13T20:50:00.852Z,102627.06
2024-03-13T20:52:10.049Z,102624.65
2024-03-13T20:54:18.808Z,102622.77
2024-03-13T20:56:28.192Z,102619.95
2024-03-13T20:58:38.149Z,102615.20
2024-03-13T21:00:47.096Z,102610.23
2024-03-13T21:02:57.963Z,102614.27
2024-03-13T21:05:07.562Z,102606.89
2024-03-13T21:07:16.305Z,102605.73
2024-03-13T21:09:25.918Z,102617.09
2024-03-13T21:11:34.843Z,102616.51
2024-03-13T21:13:43.599Z,102620.48
2024-03-13T21:15:57.098Z,102619.88
2024-03-13T21:18:11.449Z,102619.56
2024-03-13T21:20:22.153Z,102614.55
2024-03-13T21:22:31.186Z,102612.91
2024-03-13T21:24:39.991Z,102614.48
2024-03-13T21:26:49.510Z,102613.44
2024-03-13T21:28:59.263Z,102607.29
2024-03-13T21:31:08.749Z,102608.09
2024-03-13T21:33:17.418Z,102604.59
2024-03-13T21:35:31.937Z,102597.30
2024-03-13T21:37:40.888Z,102595.48
2024-03-13T21:39:49.624Z,102592.15
2024-03-13T21:41:58.266Z,102592.37
2024-03-13T21:44:08.578Z,102597.30
2024-03-13T21:46:18.018Z,102590.90
2024-03-13T21:48:26.773Z,102593.30
2024-03-13T21:50:35.620Z,102598.13
2024-03-13T21:52:45.073Z,102597.05
2024-03-13T21:54:53.773Z,102601.33
2024-03-13T21:57:04.853Z,102601.33
2024-03-13T21:59:13.624Z,102599.84
2024-03-13T22:01:22.265Z,102602.44
2024-03-13T22:03:30.970Z,102605.17
2024-03-13T22:05:39.657Z,102604.77
2024-03-13T22:07:48.256Z,102600.64
2024-03-13T22:09:56.751Z,102602.50
2024-03-13T22:12:05.532Z,102608.85
2024-03-13T22:14:14.511Z,102604.97
2024-03-13T22:16:24.390Z,102601.41
2024-03-13T22:18:33.149Z,102594.27
2024-03-13T22:20:42.481Z,102593.92
2024-03-13T22:22:51.100Z,102589.30
2024-03-13T22:24:59.766Z,102588.74
2024-03-13T22:27:08.817Z,102592.96
2024-03-13T22:29:17.717Z,102587.48
2024-03-13T22:31:26.377Z,102587.48
2024-03-13T22:33:35.700Z,102588.23
2024-03-13T22:35:44.541Z,102583.66
2024-03-13T22:37:53.106Z,102588.88
2024-03-13T22:40:01.802Z,102589.92
2024-03-13T22:42:11.184Z,102587.76
2024-03-13T22:44:20.570Z,102582.35
2024-03-13T22:46:30.186Z,102589.55
2024-03-13T22:48:39.578Z,102588.21
2024-03-13T22:50:48.378Z,102590.44
2024-03-13T22:52:56.986Z,102589.36
2024-03-13T22:55:06.189Z,102584.64
2024-03-13T22:57:14.894Z,102591.19
2024-03-13T22:59:23.927Z,102594.95
2024-03-13T23:01:34.346Z,102603.46
2024-03-13T23:03:43.122Z,102599.37
2024-03-13T23:05:54.009Z,102605.55
2024-03-13T23:08:02.723Z,102606.84
2024-03-13T23:10:13.577Z,102601.80
2024-03-13T23:12:22.925Z,102603.95
2024-03-13T23:14:31.924Z,102606.84
2024-03-13T23:16:40.944Z,102610.45
2024-03-13T23:18:49.576Z,102612.55
2024-03-13T23:21:00.489Z,102608.23
2024-03-13T23:23:09.634Z,102609.38
2024-03-13T23:25:18.454Z,102606.25
2024-03-13T23:27:27.079Z,102613.70
2024-03-13T23:29:35.795Z,102609.95
2024-03-13T23:31:46.839Z,102611.16
2024-03-13T23:33:57.376Z,102612.45
2024-03-13T23:36:07.985Z,102615.42
2024-03-13T23:38:16.739Z,102610.14
2024-03-13T23:40:25.422Z,102615.10
2024-03-13T23:42:34.122Z,102618.95
2024-03-13T23:44:42.671Z,102622.75
2024-03-13T23:46:52.012Z,102620.13
2024-03-13T23:49:01.479Z,102622.61
2024-03-13T23:51:16.721Z,102623.80
2024-03-13T23:53:25.445Z,102627.44
2024-03-13T23:55:34.222Z,102622.70
2024-03-13T23:57:43.959Z,102618.52
2024-03-13T23:59:53.024Z,102618.87
